Islamorada, Florida
Current Conditions -  °F | °C
As of 3:53 AM on Monday 24 Nov 2014 (Local Time) from KMTH Reporting Station
Clear Clear  
Wind Chill: 26°   Ceiling: Unl
Heat Index: 27°   Visibility: 8mi
Dew Point: 26°   Wind: 5mph
Humidity: 100%   Direction: 160°SSE
Pressure: 29.93"   Gusts: NA
Location:  24.93°N, 80.63°W
Report Text: KMTH 240853Z AUTO 16004KT 8SM CLR 26/26 A2993 RMK AO2 SLP136 T02560256 53001
Loading
Personal Weather Stations






























Interactive Weather Map New forecast layout! Learn more

10-Day Weather Forecast

Advertisements
Track Severe Weather on mobile